Forestal Gaia — 3FAX7 — position and weather

sailwx.info

Track history (hours):
 
Tides and Currents Weather Stations Pressure Air Temp Water Temp Dewpoint Dewpoint Depression Visibility Wind Speed Wind Dir Waves Ship Positions

Forestal Gaia

Last reported at 2018-Jun-16 16:59 UTC. Time now 2018-Jun-19 01:25 UTC.
Position N 31°21' E 032°20'.

Length 198.4 m; beam 32.2 m.

Type: Cargo ship. MMSI: 353982000.

Date/timePositionNaut miles runAvg speedWind from/ knotsBaromVisibWave heightAir tempDewpointWater temp
2018-Jun-16 16:59N 31°21' E 032°20'0 0.0
2018-Jun-16 16:23N 31°21' E 032°20'29 2.2
2018-Jun-16 03:04N 31°44' E 031°57'112.2
2018-Jun-16 02:57N 31°45' E 031°56'612.5
2018-Jun-16 02:28N 31°47' E 031°49'2212.4
2018-Jun-16 00:40N 31°56' E 031°25'212.3
2018-Jun-16 00:28N 31°57' E 031°23'1012.1
2018-Jun-15 23:36N 32°01' E 031°11'311.8
2018-Jun-15 23:20N 32°02' E 031°08'1111.9
2018-Jun-15 22:27N 32°05' E 030°56'  
2018-Jun-12 15:22N 36°34' E 013°21'511.9
2018-Jun-12 15:00N 36°36' E 013°16'611.8
2018-Jun-12 14:29N 36°39' E 013°09'611.8
2018-Jun-12 14:00N 36°41' E 013°03'611.6
2018-Jun-12 13:30N 36°43' E 012°56'611.5
2018-Jun-12 13:00N 36°46' E 012°49'611.8
2018-Jun-12 12:30N 36°48' E 012°43'612.0
2018-Jun-12 12:00N 36°50' E 012°36'711.9
2018-Jun-12 11:27N 36°53' E 012°28'  
2018-Jun-09 17:40N 36°01' W 005°10'215.1
2018-Jun-09 17:30N 36°01' W 005°13'815.6
2018-Jun-09 17:00N 35°59' W 005°22'29011.0
2018-Jun-08 14:41N 39°01' W 010°07'212.9
2018-Jun-08 14:30N 39°03' W 010°06'  
Track history (hours):
 
Tides and Currents Weather Stations Pressure Air Temp Water Temp Dewpoint Dewpoint Depression Visibility Wind Speed Wind Dir Waves Ship Positions

Forestal Gaia

Last reported at 2018-Jun-16 16:59 UTC. Time now 2018-Jun-19 01:25 UTC.
Position N 31°21' E 032°20'.

Length 198.4 m; beam 32.2 m.

Type: Cargo ship. MMSI: 353982000.

Date/timePositionNaut miles runAvg speedWind from/ knotsBaromVisibWave heightAir tempDewpointWater temp
2018-Jun-16 16:59N 31°21' E 032°20'0 0.0
2018-Jun-16 16:23N 31°21' E 032°20'29 2.2
2018-Jun-16 03:04N 31°44' E 031°57'112.2
2018-Jun-16 02:57N 31°45' E 031°56'612.5
2018-Jun-16 02:28N 31°47' E 031°49'2212.4
2018-Jun-16 00:40N 31°56' E 031°25'212.3
2018-Jun-16 00:28N 31°57' E 031°23'1012.1
2018-Jun-15 23:36N 32°01' E 031°11'311.8
2018-Jun-15 23:20N 32°02' E 031°08'1111.9
2018-Jun-15 22:27N 32°05' E 030°56'  
2018-Jun-12 15:22N 36°34' E 013°21'511.9
2018-Jun-12 15:00N 36°36' E 013°16'611.8
2018-Jun-12 14:29N 36°39' E 013°09'611.8
2018-Jun-12 14:00N 36°41' E 013°03'611.6
2018-Jun-12 13:30N 36°43' E 012°56'611.5
2018-Jun-12 13:00N 36°46' E 012°49'611.8
2018-Jun-12 12:30N 36°48' E 012°43'612.0
2018-Jun-12 12:00N 36°50' E 012°36'711.9
2018-Jun-12 11:27N 36°53' E 012°28'  
2018-Jun-09 17:40N 36°01' W 005°10'215.1
2018-Jun-09 17:30N 36°01' W 005°13'815.6
2018-Jun-09 17:00N 35°59' W 005°22'29011.0
2018-Jun-08 14:41N 39°01' W 010°07'212.9
2018-Jun-08 14:30N 39°03' W 010°06'  

Dump ship's entire track history